sensor_id;sensor_type;location;lat;lon;timestamp;P1;durP1;ratioP1;P2;durP2;ratioP2
19509;SDS011;9896;42.486;26.506;2023-06-10T00:02:07;10.67;;;6.77;;
19509;SDS011;9896;42.486;26.506;2023-06-10T00:04:33;10.73;;;6.73;;
19509;SDS011;9896;42.486;26.506;2023-06-10T00:06:58;13.00;;;6.77;;
19509;SDS011;9896;42.486;26.506;2023-06-10T00:09:23;9.77;;;6.77;;
19509;SDS011;9896;42.486;26.506;2023-06-10T00:11:49;11.53;;;6.67;;
19509;SDS011;9896;42.486;26.506;2023-06-10T00:14:14;12.50;;;7.13;;
19509;SDS011;9896;42.486;26.506;2023-06-10T00:16:39;13.90;;;7.30;;
19509;SDS011;9896;42.486;26.506;2023-06-10T00:19:05;15.50;;;7.83;;
19509;SDS011;9896;42.486;26.506;2023-06-10T00:21:31;13.57;;;7.53;;
19509;SDS011;9896;42.486;26.506;2023-06-10T00:24:02;12.90;;;6.80;;
19509;SDS011;9896;42.486;26.506;2023-06-10T00:26:28;14.60;;;7.30;;
19509;SDS011;9896;42.486;26.506;2023-06-10T00:28:53;13.97;;;7.50;;
19509;SDS011;9896;42.486;26.506;2023-06-10T00:31:18;11.10;;;6.83;;
19509;SDS011;9896;42.486;26.506;2023-06-10T00:33:44;12.80;;;7.47;;
19509;SDS011;9896;42.486;26.506;2023-06-10T00:36:09;13.37;;;7.50;;
19509;SDS011;9896;42.486;26.506;2023-06-10T00:38:34;11.73;;;6.80;;
19509;SDS011;9896;42.486;26.506;2023-06-10T00:40:59;10.53;;;7.03;;
19509;SDS011;9896;42.486;26.506;2023-06-10T00:43:25;14.27;;;6.97;;
19509;SDS011;9896;42.486;26.506;2023-06-10T00:45:51;10.03;;;6.37;;
19509;SDS011;9896;42.486;26.506;2023-06-10T00:48:16;12.67;;;6.07;;
19509;SDS011;9896;42.486;26.506;2023-06-10T00:50:42;11.70;;;6.93;;
19509;SDS011;9896;42.486;26.506;2023-06-10T00:53:07;11.13;;;6.50;;
19509;SDS011;9896;42.486;26.506;2023-06-10T00:55:33;11.27;;;6.83;;
19509;SDS011;9896;42.486;26.506;2023-06-10T00:57:58;17.87;;;7.10;;
19509;SDS011;9896;42.486;26.506;2023-06-10T01:00:25;9.07;;;6.70;;
19509;SDS011;9896;42.486;26.506;2023-06-10T01:02:51;10.03;;;6.27;;
19509;SDS011;9896;42.486;26.506;2023-06-10T01:05:17;10.83;;;6.83;;
19509;SDS011;9896;42.486;26.506;2023-06-10T01:07:45;10.00;;;6.57;;
19509;SDS011;9896;42.486;26.506;2023-06-10T01:12:47;9.97;;;6.93;;
19509;SDS011;9896;42.486;26.506;2023-06-10T01:15:15;11.47;;;6.73;;
19509;SDS011;9896;42.486;26.506;2023-06-10T01:20:27;18.10;;;7.97;;
19509;SDS011;9896;42.486;26.506;2023-06-10T01:22:55;13.10;;;7.80;;
19509;SDS011;9896;42.486;26.506;2023-06-10T01:25:23;11.83;;;7.80;;
19509;SDS011;9896;42.486;26.506;2023-06-10T01:28:12;13.47;;;7.80;;
19509;SDS011;9896;42.486;26.506;2023-06-10T01:33:25;13.77;;;8.20;;
19509;SDS011;9896;42.486;26.506;2023-06-10T01:35:51;18.90;;;8.17;;
19509;SDS011;9896;42.486;26.506;2023-06-10T01:38:18;19.53;;;8.13;;
19509;SDS011;9896;42.486;26.506;2023-06-10T01:40:44;16.17;;;7.77;;
19509;SDS011;9896;42.486;26.506;2023-06-10T01:43:10;13.87;;;7.20;;
19509;SDS011;9896;42.486;26.506;2023-06-10T01:45:36;16.83;;;7.20;;
19509;SDS011;9896;42.486;26.506;2023-06-10T01:48:01;14.07;;;6.70;;
19509;SDS011;9896;42.486;26.506;2023-06-10T01:50:26;11.43;;;6.60;;
19509;SDS011;9896;42.486;26.506;2023-06-10T01:52:51;13.07;;;6.87;;
19509;SDS011;9896;42.486;26.506;2023-06-10T01:55:17;11.77;;;6.87;;
19509;SDS011;9896;42.486;26.506;2023-06-10T01:57:42;11.77;;;6.67;;
19509;SDS011;9896;42.486;26.506;2023-06-10T02:00:08;10.87;;;6.73;;
19509;SDS011;9896;42.486;26.506;2023-06-10T02:02:33;14.20;;;8.10;;
19509;SDS011;9896;42.486;26.506;2023-06-10T02:04:58;13.90;;;7.33;;
19509;SDS011;9896;42.486;26.506;2023-06-10T02:07:25;10.23;;;7.30;;
19509;SDS011;9896;42.486;26.506;2023-06-10T02:09:50;15.90;;;8.47;;
19509;SDS011;9896;42.486;26.506;2023-06-10T02:12:15;13.77;;;6.90;;
19509;SDS011;9896;42.486;26.506;2023-06-10T02:14:41;11.33;;;7.60;;
19509;SDS011;9896;42.486;26.506;2023-06-10T02:17:06;15.43;;;8.37;;
19509;SDS011;9896;42.486;26.506;2023-06-10T02:19:32;15.83;;;7.93;;
19509;SDS011;9896;42.486;26.506;2023-06-10T02:22:01;16.93;;;8.20;;
19509;SDS011;9896;42.486;26.506;2023-06-10T02:24:26;11.20;;;7.33;;
19509;SDS011;9896;42.486;26.506;2023-06-10T02:26:52;10.07;;;7.60;;
19509;SDS011;9896;42.486;26.506;2023-06-10T02:29:17;15.53;;;6.93;;
19509;SDS011;9896;42.486;26.506;2023-06-10T02:31:43;17.20;;;8.17;;
19509;SDS011;9896;42.486;26.506;2023-06-10T02:34:08;15.67;;;7.63;;
19509;SDS011;9896;42.486;26.506;2023-06-10T02:36:33;12.03;;;7.03;;
19509;SDS011;9896;42.486;26.506;2023-06-10T02:39:01;15.87;;;7.90;;
19509;SDS011;9896;42.486;26.506;2023-06-10T02:41:26;8.60;;;7.37;;
19509;SDS011;9896;42.486;26.506;2023-06-10T02:43:51;13.17;;;7.57;;
19509;SDS011;9896;42.486;26.506;2023-06-10T02:46:17;13.83;;;7.70;;
19509;SDS011;9896;42.486;26.506;2023-06-10T02:48:42;15.50;;;8.73;;
19509;SDS011;9896;42.486;26.506;2023-06-10T02:51:09;11.67;;;8.13;;
19509;SDS011;9896;42.486;26.506;2023-06-10T02:53:34;20.30;;;7.50;;
19509;SDS011;9896;42.486;26.506;2023-06-10T02:55:59;14.20;;;7.57;;
19509;SDS011;9896;42.486;26.506;2023-06-10T02:58:25;14.10;;;7.40;;
19509;SDS011;9896;42.486;26.506;2023-06-10T03:00:51;11.90;;;7.03;;
19509;SDS011;9896;42.486;26.506;2023-06-10T03:03:16;10.80;;;6.87;;
19509;SDS011;9896;42.486;26.506;2023-06-10T03:05:41;17.23;;;6.60;;
19509;SDS011;9896;42.486;26.506;2023-06-10T03:08:07;13.00;;;7.23;;
19509;SDS011;9896;42.486;26.506;2023-06-10T03:10:32;29.40;;;17.13;;
19509;SDS011;9896;42.486;26.506;2023-06-10T03:12:58;11.80;;;6.53;;
19509;SDS011;9896;42.486;26.506;2023-06-10T03:15:23;15.23;;;6.30;;
19509;SDS011;9896;42.486;26.506;2023-06-10T03:17:49;10.53;;;6.40;;
19509;SDS011;9896;42.486;26.506;2023-06-10T03:20:15;9.57;;;5.70;;
19509;SDS011;9896;42.486;26.506;2023-06-10T03:22:42;12.57;;;6.50;;
19509;SDS011;9896;42.486;26.506;2023-06-10T03:25:07;16.93;;;7.20;;
19509;SDS011;9896;42.486;26.506;2023-06-10T03:27:39;20.40;;;6.10;;
19509;SDS011;9896;42.486;26.506;2023-06-10T03:30:05;14.17;;;6.50;;
19509;SDS011;9896;42.486;26.506;2023-06-10T03:32:30;14.97;;;6.77;;
19509;SDS011;9896;42.486;26.506;2023-06-10T03:34:55;13.40;;;7.30;;
19509;SDS011;9896;42.486;26.506;2023-06-10T03:37:22;13.47;;;7.53;;
19509;SDS011;9896;42.486;26.506;2023-06-10T03:39:47;12.27;;;6.43;;
19509;SDS011;9896;42.486;26.506;2023-06-10T03:42:13;16.30;;;6.73;;
19509;SDS011;9896;42.486;26.506;2023-06-10T03:44:38;16.37;;;7.37;;
19509;SDS011;9896;42.486;26.506;2023-06-10T03:47:03;13.93;;;7.10;;
19509;SDS011;9896;42.486;26.506;2023-06-10T03:49:29;11.83;;;7.43;;
19509;SDS011;9896;42.486;26.506;2023-06-10T03:51:54;12.87;;;7.50;;
19509;SDS011;9896;42.486;26.506;2023-06-10T03:54:20;11.73;;;7.57;;
19509;SDS011;9896;42.486;26.506;2023-06-10T03:56:45;17.80;;;10.47;;
19509;SDS011;9896;42.486;26.506;2023-06-10T03:59:10;10.33;;;7.10;;
19509;SDS011;9896;42.486;26.506;2023-06-10T04:01:36;13.70;;;7.20;;
19509;SDS011;9896;42.486;26.506;2023-06-10T04:04:02;11.57;;;8.10;;
19509;SDS011;9896;42.486;26.506;2023-06-10T04:06:27;11.93;;;7.60;;
19509;SDS011;9896;42.486;26.506;2023-06-10T04:08:54;11.63;;;7.80;;
19509;SDS011;9896;42.486;26.506;2023-06-10T04:11:21;14.73;;;7.90;;
19509;SDS011;9896;42.486;26.506;2023-06-10T04:13:46;12.17;;;7.83;;
19509;SDS011;9896;42.486;26.506;2023-06-10T04:16:11;16.93;;;8.10;;
19509;SDS011;9896;42.486;26.506;2023-06-10T04:18:37;12.90;;;8.23;;
19509;SDS011;9896;42.486;26.506;2023-06-10T04:21:02;13.47;;;8.20;;
19509;SDS011;9896;42.486;26.506;2023-06-10T04:23:27;11.90;;;8.20;;
19509;SDS011;9896;42.486;26.506;2023-06-10T04:25:53;10.07;;;7.90;;
19509;SDS011;9896;42.486;26.506;2023-06-10T04:28:18;13.40;;;9.23;;
19509;SDS011;9896;42.486;26.506;2023-06-10T04:30:43;11.90;;;7.60;;
19509;SDS011;9896;42.486;26.506;2023-06-10T04:33:10;12.30;;;8.27;;
19509;SDS011;9896;42.486;26.506;2023-06-10T04:35:35;15.67;;;8.70;;
19509;SDS011;9896;42.486;26.506;2023-06-10T04:38:00;13.73;;;7.83;;
19509;SDS011;9896;42.486;26.506;2023-06-10T04:40:27;14.30;;;8.37;;
19509;SDS011;9896;42.486;26.506;2023-06-10T04:42:53;15.13;;;7.63;;
19509;SDS011;9896;42.486;26.506;2023-06-10T04:45:18;15.27;;;8.37;;
19509;SDS011;9896;42.486;26.506;2023-06-10T04:47:43;27.17;;;15.03;;
19509;SDS011;9896;42.486;26.506;2023-06-10T04:50:09;13.67;;;8.27;;
19509;SDS011;9896;42.486;26.506;2023-06-10T04:52:34;15.27;;;8.10;;
19509;SDS011;9896;42.486;26.506;2023-06-10T04:54:59;10.87;;;7.40;;
19509;SDS011;9896;42.486;26.506;2023-06-10T04:57:25;13.37;;;7.57;;
19509;SDS011;9896;42.486;26.506;2023-06-10T04:59:52;12.63;;;7.10;;
19509;SDS011;9896;42.486;26.506;2023-06-10T05:02:17;11.80;;;6.93;;
19509;SDS011;9896;42.486;26.506;2023-06-10T05:04:42;11.90;;;7.43;;
19509;SDS011;9896;42.486;26.506;2023-06-10T05:07:08;9.83;;;7.37;;
19509;SDS011;9896;42.486;26.506;2023-06-10T05:09:33;11.43;;;7.30;;
19509;SDS011;9896;42.486;26.506;2023-06-10T05:11:59;15.07;;;7.70;;
19509;SDS011;9896;42.486;26.506;2023-06-10T05:14:25;12.37;;;7.53;;
19509;SDS011;9896;42.486;26.506;2023-06-10T05:16:50;96.17;;;14.37;;
19509;SDS011;9896;42.486;26.506;2023-06-10T05:19:15;10.70;;;7.27;;
19509;SDS011;9896;42.486;26.506;2023-06-10T05:21:44;15.33;;;9.03;;
19509;SDS011;9896;42.486;26.506;2023-06-10T05:24:10;12.80;;;7.40;;
19509;SDS011;9896;42.486;26.506;2023-06-10T05:26:35;11.77;;;8.07;;
19509;SDS011;9896;42.486;26.506;2023-06-10T05:29:04;19.43;;;7.90;;
19509;SDS011;9896;42.486;26.506;2023-06-10T05:31:29;12.83;;;7.77;;
19509;SDS011;9896;42.486;26.506;2023-06-10T05:33:55;17.97;;;8.33;;
19509;SDS011;9896;42.486;26.506;2023-06-10T05:36:20;13.67;;;8.17;;
19509;SDS011;9896;42.486;26.506;2023-06-10T05:38:46;18.10;;;8.13;;
19509;SDS011;9896;42.486;26.506;2023-06-10T05:41:11;13.47;;;8.67;;
19509;SDS011;9896;42.486;26.506;2023-06-10T05:43:36;16.37;;;8.70;;
19509;SDS011;9896;42.486;26.506;2023-06-10T05:46:01;16.60;;;9.03;;
19509;SDS011;9896;42.486;26.506;2023-06-10T05:48:27;12.23;;;8.33;;
19509;SDS011;9896;42.486;26.506;2023-06-10T05:50:52;16.07;;;9.50;;
19509;SDS011;9896;42.486;26.506;2023-06-10T05:53:17;19.37;;;8.97;;
19509;SDS011;9896;42.486;26.506;2023-06-10T05:55:43;14.07;;;8.07;;
19509;SDS011;9896;42.486;26.506;2023-06-10T05:58:09;98.67;;;13.10;;
19509;SDS011;9896;42.486;26.506;2023-06-10T06:00:34;10.23;;;7.97;;
19509;SDS011;9896;42.486;26.506;2023-06-10T06:03:00;10.90;;;8.03;;
19509;SDS011;9896;42.486;26.506;2023-06-10T06:05:25;14.03;;;7.30;;
19509;SDS011;9896;42.486;26.506;2023-06-10T06:07:50;15.53;;;7.40;;
19509;SDS011;9896;42.486;26.506;2023-06-10T06:10:19;9.17;;;6.40;;
19509;SDS011;9896;42.486;26.506;2023-06-10T06:12:44;12.00;;;7.47;;
19509;SDS011;9896;42.486;26.506;2023-06-10T06:15:10;10.13;;;5.87;;
19509;SDS011;9896;42.486;26.506;2023-06-10T06:17:36;11.17;;;5.90;;
19509;SDS011;9896;42.486;26.506;2023-06-10T06:20:02;13.37;;;5.50;;
19509;SDS011;9896;42.486;26.506;2023-06-10T06:22:27;40.93;;;9.10;;
19509;SDS011;9896;42.486;26.506;2023-06-10T06:24:52;32.17;;;7.33;;
19509;SDS011;9896;42.486;26.506;2023-06-10T06:27:18;10.47;;;5.20;;
19509;SDS011;9896;42.486;26.506;2023-06-10T06:29:43;8.70;;;6.03;;
19509;SDS011;9896;42.486;26.506;2023-06-10T06:32:08;7.17;;;4.90;;
19509;SDS011;9896;42.486;26.506;2023-06-10T06:34:33;7.73;;;5.60;;
19509;SDS011;9896;42.486;26.506;2023-06-10T06:36:59;56.07;;;10.90;;
19509;SDS011;9896;42.486;26.506;2023-06-10T06:39:24;8.30;;;5.27;;
19509;SDS011;9896;42.486;26.506;2023-06-10T06:41:49;11.17;;;8.03;;
19509;SDS011;9896;42.486;26.506;2023-06-10T06:44:15;10.10;;;8.33;;
19509;SDS011;9896;42.486;26.506;2023-06-10T06:46:40;18.30;;;16.53;;
19509;SDS011;9896;42.486;26.506;2023-06-10T06:49:05;40.50;;;16.17;;
19509;SDS011;9896;42.486;26.506;2023-06-10T06:51:31;46.33;;;18.23;;
19509;SDS011;9896;42.486;26.506;2023-06-10T06:53:56;36.70;;;13.80;;
19509;SDS011;9896;42.486;26.506;2023-06-10T06:56:24;16.93;;;15.27;;
19509;SDS011;9896;42.486;26.506;2023-06-10T06:58:49;26.90;;;23.97;;
19509;SDS011;9896;42.486;26.506;2023-06-10T07:01:14;119.37;;;30.90;;
19509;SDS011;9896;42.486;26.506;2023-06-10T07:03:40;26.27;;;21.03;;
19509;SDS011;9896;42.486;26.506;2023-06-10T07:06:05;18.23;;;16.10;;
19509;SDS011;9896;42.486;26.506;2023-06-10T07:08:31;39.40;;;22.35;;
19509;SDS011;9896;42.486;26.506;2023-06-10T07:10:56;7.85;;;7.05;;
19509;SDS011;9896;42.486;26.506;2023-06-10T07:13:21;17.02;;;14.60;;
19509;SDS011;9896;42.486;26.506;2023-06-10T07:15:47;21.67;;;15.60;;
19509;SDS011;9896;42.486;26.506;2023-06-10T07:18:12;53.92;;;39.33;;
19509;SDS011;9896;42.486;26.506;2023-06-10T07:20:37;11.93;;;7.70;;
19509;SDS011;9896;42.486;26.506;2023-06-10T07:23:03;6.60;;;4.28;;
19509;SDS011;9896;42.486;26.506;2023-06-10T07:25:28;6.20;;;5.57;;
19509;SDS011;9896;42.486;26.506;2023-06-10T07:27:53;9.32;;;7.25;;
19509;SDS011;9896;42.486;26.506;2023-06-10T07:30:19;7.35;;;4.30;;
19509;SDS011;9896;42.486;26.506;2023-06-10T07:32:44;13.98;;;5.10;;
19509;SDS011;9896;42.486;26.506;2023-06-10T07:35:09;38.83;;;11.68;;
19509;SDS011;9896;42.486;26.506;2023-06-10T07:37:38;8.07;;;4.95;;
19509;SDS011;9896;42.486;26.506;2023-06-10T07:40:04;43.55;;;19.00;;
19509;SDS011;9896;42.486;26.506;2023-06-10T07:42:30;9.48;;;4.70;;
19509;SDS011;9896;42.486;26.506;2023-06-10T07:44:56;8.48;;;4.25;;
19509;SDS011;9896;42.486;26.506;2023-06-10T07:47:21;7.65;;;4.28;;
19509;SDS011;9896;42.486;26.506;2023-06-10T07:49:46;10.20;;;4.07;;
19509;SDS011;9896;42.486;26.506;2023-06-10T07:52:11;7.60;;;4.18;;
19509;SDS011;9896;42.486;26.506;2023-06-10T07:54:37;67.43;;;12.68;;
19509;SDS011;9896;42.486;26.506;2023-06-10T07:57:02;5.13;;;3.90;;
19509;SDS011;9896;42.486;26.506;2023-06-10T07:59:28;10.52;;;4.50;;
19509;SDS011;9896;42.486;26.506;2023-06-10T08:01:53;7.93;;;4.15;;
19509;SDS011;9896;42.486;26.506;2023-06-10T08:04:18;6.50;;;4.13;;
19509;SDS011;9896;42.486;26.506;2023-06-10T08:06:44;7.22;;;4.20;;
19509;SDS011;9896;42.486;26.506;2023-06-10T08:09:09;9.93;;;4.18;;
19509;SDS011;9896;42.486;26.506;2023-06-10T08:11:34;9.32;;;4.18;;
19509;SDS011;9896;42.486;26.506;2023-06-10T08:14:00;8.05;;;4.47;;
19509;SDS011;9896;42.486;26.506;2023-06-10T08:16:25;6.22;;;4.03;;
19509;SDS011;9896;42.486;26.506;2023-06-10T08:18:50;5.28;;;3.83;;
19509;SDS011;9896;42.486;26.506;2023-06-10T08:21:15;8.13;;;4.25;;
19509;SDS011;9896;42.486;26.506;2023-06-10T08:23:41;6.07;;;3.75;;
19509;SDS011;9896;42.486;26.506;2023-06-10T08:26:06;6.72;;;4.03;;
19509;SDS011;9896;42.486;26.506;2023-06-10T08:28:31;8.10;;;3.80;;
19509;SDS011;9896;42.486;26.506;2023-06-10T08:30:57;15.20;;;6.43;;
19509;SDS011;9896;42.486;26.506;2023-06-10T08:33:22;9.73;;;4.70;;
19509;SDS011;9896;42.486;26.506;2023-06-10T08:35:48;8.95;;;6.30;;
19509;SDS011;9896;42.486;26.506;2023-06-10T08:38:13;7.07;;;3.75;;
19509;SDS011;9896;42.486;26.506;2023-06-10T08:40:38;7.28;;;4.30;;
19509;SDS011;9896;42.486;26.506;2023-06-10T08:43:07;7.15;;;4.05;;
19509;SDS011;9896;42.486;26.506;2023-06-10T08:45:36;4.95;;;3.70;;
19509;SDS011;9896;42.486;26.506;2023-06-10T08:48:05;8.32;;;3.97;;
19509;SDS011;9896;42.486;26.506;2023-06-10T08:50:34;65.32;;;17.98;;
19509;SDS011;9896;42.486;26.506;2023-06-10T08:53:00;6.05;;;4.40;;
19509;SDS011;9896;42.486;26.506;2023-06-10T08:55:38;6.53;;;3.55;;
19509;SDS011;9896;42.486;26.506;2023-06-10T08:58:03;8.20;;;3.85;;
19509;SDS011;9896;42.486;26.506;2023-06-10T09:00:29;8.35;;;4.10;;
19509;SDS011;9896;42.486;26.506;2023-06-10T09:02:56;8.05;;;4.28;;
19509;SDS011;9896;42.486;26.506;2023-06-10T09:05:21;8.98;;;4.35;;
19509;SDS011;9896;42.486;26.506;2023-06-10T09:07:47;6.68;;;4.63;;
19509;SDS011;9896;42.486;26.506;2023-06-10T09:10:13;5.60;;;4.35;;
19509;SDS011;9896;42.486;26.506;2023-06-10T09:12:38;7.68;;;3.90;;
19509;SDS011;9896;42.486;26.506;2023-06-10T09:15:04;9.27;;;5.03;;
19509;SDS011;9896;42.486;26.506;2023-06-10T09:17:29;10.13;;;4.10;;
19509;SDS011;9896;42.486;26.506;2023-06-10T09:19:55;6.75;;;4.30;;
19509;SDS011;9896;42.486;26.506;2023-06-10T09:22:22;6.68;;;3.75;;
19509;SDS011;9896;42.486;26.506;2023-06-10T09:24:47;11.27;;;4.90;;
19509;SDS011;9896;42.486;26.506;2023-06-10T09:27:13;6.55;;;4.65;;
19509;SDS011;9896;42.486;26.506;2023-06-10T09:32:17;8.07;;;4.47;;
19509;SDS011;9896;42.486;26.506;2023-06-10T09:34:42;6.78;;;4.50;;
19509;SDS011;9896;42.486;26.506;2023-06-10T09:37:08;6.80;;;4.50;;
19509;SDS011;9896;42.486;26.506;2023-06-10T09:39:37;8.38;;;4.65;;
19509;SDS011;9896;42.486;26.506;2023-06-10T09:42:02;7.18;;;4.93;;
19509;SDS011;9896;42.486;26.506;2023-06-10T09:44:40;7.20;;;4.50;;
19509;SDS011;9896;42.486;26.506;2023-06-10T09:47:05;7.35;;;4.90;;
19509;SDS011;9896;42.486;26.506;2023-06-10T09:49:30;6.70;;;4.57;;
19509;SDS011;9896;42.486;26.506;2023-06-10T09:51:57;9.10;;;4.97;;
19509;SDS011;9896;42.486;26.506;2023-06-10T09:54:22;5.82;;;4.72;;
19509;SDS011;9896;42.486;26.506;2023-06-10T09:56:48;7.55;;;4.10;;
19509;SDS011;9896;42.486;26.506;2023-06-10T09:59:14;7.07;;;4.57;;
19509;SDS011;9896;42.486;26.506;2023-06-10T10:01:39;230.18;;;209.55;;
19509;SDS011;9896;42.486;26.506;2023-06-10T10:04:05;784.80;;;706.08;;
19509;SDS011;9896;42.486;26.506;2023-06-10T10:06:30;973.20;;;872.72;;
19509;SDS011;9896;42.486;26.506;2023-06-10T10:08:55;1999.90;;;999.90;;
19509;SDS011;9896;42.486;26.506;2023-06-10T10:11:21;1348.72;;;807.78;;
19509;SDS011;9896;42.486;26.506;2023-06-10T10:13:47;51.03;;;46.50;;
19509;SDS011;9896;42.486;26.506;2023-06-10T10:16:16;9.52;;;8.10;;
19509;SDS011;9896;42.486;26.506;2023-06-10T10:18:43;43.55;;;23.65;;
19509;SDS011;9896;42.486;26.506;2023-06-10T10:21:13;26.75;;;13.48;;
19509;SDS011;9896;42.486;26.506;2023-06-10T10:23:44;22.38;;;20.60;;
19509;SDS011;9896;42.486;26.506;2023-06-10T10:26:14;168.60;;;136.07;;
19509;SDS011;9896;42.486;26.506;2023-06-10T10:28:51;106.03;;;96.65;;
19509;SDS011;9896;42.486;26.506;2023-06-10T10:31:18;325.00;;;299.80;;
19509;SDS011;9896;42.486;26.506;2023-06-10T10:33:59;1054.25;;;605.70;;
19509;SDS011;9896;42.486;26.506;2023-06-10T10:36:25;179.32;;;166.25;;
19509;SDS011;9896;42.486;26.506;2023-06-10T10:38:50;226.00;;;209.02;;
19509;SDS011;9896;42.486;26.506;2023-06-10T10:41:16;1213.95;;;926.33;;
19509;SDS011;9896;42.486;26.506;2023-06-10T10:43:43;646.50;;;346.67;;
19509;SDS011;9896;42.486;26.506;2023-06-10T10:46:11;305.35;;;236.50;;
19509;SDS011;9896;42.486;26.506;2023-06-10T10:48:38;645.92;;;536.00;;
19509;SDS011;9896;42.486;26.506;2023-06-10T10:51:03;352.48;;;151.15;;
19509;SDS011;9896;42.486;26.506;2023-06-10T10:53:29;822.25;;;414.98;;
19509;SDS011;9896;42.486;26.506;2023-06-10T10:56:04;324.35;;;205.10;;
19509;SDS011;9896;42.486;26.506;2023-06-10T10:58:30;357.05;;;324.38;;
19509;SDS011;9896;42.486;26.506;2023-06-10T11:00:57;484.92;;;421.90;;
19509;SDS011;9896;42.486;26.506;2023-06-10T11:03:22;1999.90;;;920.67;;
19509;SDS011;9896;42.486;26.506;2023-06-10T11:05:52;484.77;;;434.52;;
19509;SDS011;9896;42.486;26.506;2023-06-10T11:10:58;1999.90;;;999.90;;
19509;SDS011;9896;42.486;26.506;2023-06-10T11:13:23;1999.90;;;596.85;;
19509;SDS011;9896;42.486;26.506;2023-06-10T11:15:50;307.98;;;129.52;;
19509;SDS011;9896;42.486;26.506;2023-06-10T11:18:28;154.75;;;140.23;;
19509;SDS011;9896;42.486;26.506;2023-06-10T11:33:53;1999.90;;;999.90;;
19509;SDS011;9896;42.486;26.506;2023-06-10T11:36:18;1716.68;;;779.00;;
19509;SDS011;9896;42.486;26.506;2023-06-10T11:38:44;1999.90;;;999.90;;
19509;SDS011;9896;42.486;26.506;2023-06-10T11:41:10;1999.90;;;999.90;;
19509;SDS011;9896;42.486;26.506;2023-06-10T11:43:36;1999.90;;;999.90;;
19509;SDS011;9896;42.486;26.506;2023-06-10T11:46:01;1604.30;;;764.42;;
19509;SDS011;9896;42.486;26.506;2023-06-10T11:48:27;1679.68;;;779.88;;
19509;SDS011;9896;42.486;26.506;2023-06-10T11:50:55;1999.90;;;999.90;;
19509;SDS011;9896;42.486;26.506;2023-06-10T11:53:20;1999.90;;;999.90;;
19509;SDS011;9896;42.486;26.506;2023-06-10T11:55:47;1999.90;;;999.90;;
19509;SDS011;9896;42.486;26.506;2023-06-10T11:58:13;1999.90;;;999.90;;
19509;SDS011;9896;42.486;26.506;2023-06-10T12:00:45;1999.90;;;999.90;;
19509;SDS011;9896;42.486;26.506;2023-06-10T12:03:11;1999.90;;;999.90;;
19509;SDS011;9896;42.486;26.506;2023-06-10T12:05:36;1999.90;;;999.90;;
19509;SDS011;9896;42.486;26.506;2023-06-10T12:08:09;1999.90;;;999.90;;
19509;SDS011;9896;42.486;26.506;2023-06-10T12:10:39;1373.43;;;550.53;;
19509;SDS011;9896;42.486;26.506;2023-06-10T12:13:04;1999.90;;;999.90;;
19509;SDS011;9896;42.486;26.506;2023-06-10T12:15:30;1999.90;;;999.90;;
19509;SDS011;9896;42.486;26.506;2023-06-10T12:17:55;1999.90;;;999.90;;
19509;SDS011;9896;42.486;26.506;2023-06-10T12:20:25;1999.90;;;999.90;;
19509;SDS011;9896;42.486;26.506;2023-06-10T12:22:50;1999.90;;;999.90;;
19509;SDS011;9896;42.486;26.506;2023-06-10T12:25:16;1999.90;;;999.90;;
19509;SDS011;9896;42.486;26.506;2023-06-10T12:27:49;1999.90;;;999.90;;
19509;SDS011;9896;42.486;26.506;2023-06-10T12:30:18;537.45;;;96.32;;
19509;SDS011;9896;42.486;26.506;2023-06-10T12:32:44;1999.90;;;999.90;;
19509;SDS011;9896;42.486;26.506;2023-06-10T12:35:11;1999.90;;;999.90;;
19509;SDS011;9896;42.486;26.506;2023-06-10T12:37:37;1999.90;;;999.90;;
19509;SDS011;9896;42.486;26.506;2023-06-10T12:40:03;1999.90;;;999.90;;
19509;SDS011;9896;42.486;26.506;2023-06-10T12:42:30;1999.90;;;999.90;;
19509;SDS011;9896;42.486;26.506;2023-06-10T12:44:56;1999.90;;;999.90;;
19509;SDS011;9896;42.486;26.506;2023-06-10T12:47:35;1999.90;;;999.90;;
19509;SDS011;9896;42.486;26.506;2023-06-10T12:50:00;1097.05;;;510.98;;
19509;SDS011;9896;42.486;26.506;2023-06-10T12:52:26;1999.90;;;999.90;;
19509;SDS011;9896;42.486;26.506;2023-06-10T12:54:52;1999.90;;;999.90;;
19509;SDS011;9896;42.486;26.506;2023-06-10T12:57:17;1999.90;;;999.90;;
19509;SDS011;9896;42.486;26.506;2023-06-10T12:59:43;1999.90;;;999.90;;
19509;SDS011;9896;42.486;26.506;2023-06-10T13:02:15;1999.90;;;999.90;;
19509;SDS011;9896;42.486;26.506;2023-06-10T13:04:40;1999.90;;;999.90;;
19509;SDS011;9896;42.486;26.506;2023-06-10T13:07:05;1999.90;;;999.90;;
19509;SDS011;9896;42.486;26.506;2023-06-10T13:09:31;1999.90;;;999.90;;
19509;SDS011;9896;42.486;26.506;2023-06-10T13:11:56;1999.90;;;999.90;;
19509;SDS011;9896;42.486;26.506;2023-06-10T13:14:22;1999.90;;;999.90;;
19509;SDS011;9896;42.486;26.506;2023-06-10T13:16:47;1999.90;;;999.90;;
19509;SDS011;9896;42.486;26.506;2023-06-10T13:19:12;1999.90;;;999.90;;
19509;SDS011;9896;42.486;26.506;2023-06-10T13:21:39;1999.90;;;999.90;;
19509;SDS011;9896;42.486;26.506;2023-06-10T13:24:04;1999.90;;;999.90;;
19509;SDS011;9896;42.486;26.506;2023-06-10T13:26:29;1999.90;;;999.90;;
19509;SDS011;9896;42.486;26.506;2023-06-10T13:28:55;1999.90;;;999.90;;
19509;SDS011;9896;42.486;26.506;2023-06-10T13:31:20;1999.90;;;999.90;;
19509;SDS011;9896;42.486;26.506;2023-06-10T13:33:46;1999.90;;;999.90;;
19509;SDS011;9896;42.486;26.506;2023-06-10T13:36:12;1999.90;;;999.90;;
19509;SDS011;9896;42.486;26.506;2023-06-10T13:38:37;1999.90;;;999.90;;
19509;SDS011;9896;42.486;26.506;2023-06-10T13:41:02;1999.90;;;999.90;;
19509;SDS011;9896;42.486;26.506;2023-06-10T13:43:28;1999.90;;;999.90;;
19509;SDS011;9896;42.486;26.506;2023-06-10T13:45:54;1999.90;;;999.90;;
19509;SDS011;9896;42.486;26.506;2023-06-10T13:48:19;1999.90;;;999.90;;
19509;SDS011;9896;42.486;26.506;2023-06-10T13:50:45;1999.90;;;999.90;;
19509;SDS011;9896;42.486;26.506;2023-06-10T13:53:11;1999.90;;;999.90;;
19509;SDS011;9896;42.486;26.506;2023-06-10T13:55:36;1999.90;;;999.90;;
19509;SDS011;9896;42.486;26.506;2023-06-10T13:58:01;1999.90;;;999.90;;
19509;SDS011;9896;42.486;26.506;2023-06-10T14:00:27;1999.90;;;999.90;;
19509;SDS011;9896;42.486;26.506;2023-06-10T14:02:53;1999.90;;;999.90;;
19509;SDS011;9896;42.486;26.506;2023-06-10T14:05:18;1999.90;;;999.90;;
19509;SDS011;9896;42.486;26.506;2023-06-10T14:07:43;1999.90;;;999.90;;
19509;SDS011;9896;42.486;26.506;2023-06-10T14:10:09;1999.90;;;999.90;;
19509;SDS011;9896;42.486;26.506;2023-06-10T14:12:34;1999.90;;;999.90;;
19509;SDS011;9896;42.486;26.506;2023-06-10T14:15:00;1999.90;;;999.90;;
19509;SDS011;9896;42.486;26.506;2023-06-10T14:17:25;1999.90;;;999.90;;
19509;SDS011;9896;42.486;26.506;2023-06-10T14:19:50;1999.90;;;999.90;;
19509;SDS011;9896;42.486;26.506;2023-06-10T14:22:16;1999.90;;;999.90;;
19509;SDS011;9896;42.486;26.506;2023-06-10T14:24:41;1999.90;;;999.90;;
19509;SDS011;9896;42.486;26.506;2023-06-10T14:27:06;1999.90;;;999.90;;
19509;SDS011;9896;42.486;26.506;2023-06-10T14:29:32;1999.90;;;999.90;;
19509;SDS011;9896;42.486;26.506;2023-06-10T14:31:58;1999.90;;;999.90;;
19509;SDS011;9896;42.486;26.506;2023-06-10T14:34:24;1999.90;;;999.90;;
19509;SDS011;9896;42.486;26.506;2023-06-10T14:36:53;1999.90;;;999.90;;
19509;SDS011;9896;42.486;26.506;2023-06-10T14:39:18;1999.90;;;999.90;;
19509;SDS011;9896;42.486;26.506;2023-06-10T14:41:44;1999.90;;;999.90;;